sensor_id;sensor_type;location;lat;lon;timestamp;P1;durP1;ratioP1;P2;durP2;ratioP2
62338;SDS011;48368;53.406;6.214;2023-04-16T00:00:51;55.15;;;18.90;;
62338;SDS011;48368;53.406;6.214;2023-04-16T00:03:16;48.13;;;17.17;;
62338;SDS011;48368;53.406;6.214;2023-04-16T00:05:42;52.53;;;17.65;;
62338;SDS011;48368;53.406;6.214;2023-04-16T00:08:08;45.97;;;17.13;;
62338;SDS011;48368;53.406;6.214;2023-04-16T00:10:33;48.00;;;17.70;;
62338;SDS011;48368;53.406;6.214;2023-04-16T00:13:00;43.63;;;17.05;;
62338;SDS011;48368;53.406;6.214;2023-04-16T00:15:25;60.25;;;18.77;;
62338;SDS011;48368;53.406;6.214;2023-04-16T00:17:51;49.33;;;18.40;;
62338;SDS011;48368;53.406;6.214;2023-04-16T00:20:17;49.63;;;17.65;;
62338;SDS011;48368;53.406;6.214;2023-04-16T00:22:44;48.95;;;18.67;;
62338;SDS011;48368;53.406;6.214;2023-04-16T00:25:10;56.05;;;18.52;;
62338;SDS011;48368;53.406;6.214;2023-04-16T00:27:35;58.00;;;20.60;;
62338;SDS011;48368;53.406;6.214;2023-04-16T00:30:01;48.28;;;17.63;;
62338;SDS011;48368;53.406;6.214;2023-04-16T00:32:28;58.58;;;18.63;;
62338;SDS011;48368;53.406;6.214;2023-04-16T00:34:54;52.85;;;18.52;;
62338;SDS011;48368;53.406;6.214;2023-04-16T00:37:20;54.63;;;18.13;;
62338;SDS011;48368;53.406;6.214;2023-04-16T00:39:45;59.05;;;18.80;;
62338;SDS011;48368;53.406;6.214;2023-04-16T00:42:11;53.00;;;19.02;;
62338;SDS011;48368;53.406;6.214;2023-04-16T00:44:36;55.85;;;17.77;;
62338;SDS011;48368;53.406;6.214;2023-04-16T00:47:02;58.83;;;20.42;;
62338;SDS011;48368;53.406;6.214;2023-04-16T00:49:28;53.10;;;20.50;;
62338;SDS011;48368;53.406;6.214;2023-04-16T00:51:55;48.67;;;19.25;;
62338;SDS011;48368;53.406;6.214;2023-04-16T00:54:20;43.42;;;18.42;;
62338;SDS011;48368;53.406;6.214;2023-04-16T00:56:46;47.20;;;20.80;;
62338;SDS011;48368;53.406;6.214;2023-04-16T00:59:12;53.80;;;21.45;;
62338;SDS011;48368;53.406;6.214;2023-04-16T01:01:38;65.47;;;21.55;;
62338;SDS011;48368;53.406;6.214;2023-04-16T01:04:03;52.38;;;22.23;;
62338;SDS011;48368;53.406;6.214;2023-04-16T01:06:31;56.28;;;22.63;;
62338;SDS011;48368;53.406;6.214;2023-04-16T01:08:56;65.07;;;23.00;;
62338;SDS011;48368;53.406;6.214;2023-04-16T01:11:22;56.67;;;19.02;;
62338;SDS011;48368;53.406;6.214;2023-04-16T01:13:48;52.47;;;18.73;;
62338;SDS011;48368;53.406;6.214;2023-04-16T01:16:14;58.72;;;19.55;;
62338;SDS011;48368;53.406;6.214;2023-04-16T01:18:39;54.30;;;21.13;;
62338;SDS011;48368;53.406;6.214;2023-04-16T01:21:05;64.75;;;21.98;;
62338;SDS011;48368;53.406;6.214;2023-04-16T01:23:31;62.38;;;20.80;;
62338;SDS011;48368;53.406;6.214;2023-04-16T01:25:57;63.60;;;21.60;;
62338;SDS011;48368;53.406;6.214;2023-04-16T01:28:22;63.15;;;21.67;;
62338;SDS011;48368;53.406;6.214;2023-04-16T01:30:48;54.22;;;19.48;;
62338;SDS011;48368;53.406;6.214;2023-04-16T01:33:14;60.38;;;22.65;;
62338;SDS011;48368;53.406;6.214;2023-04-16T01:35:40;61.65;;;20.77;;
62338;SDS011;48368;53.406;6.214;2023-04-16T01:38:06;66.82;;;20.80;;
62338;SDS011;48368;53.406;6.214;2023-04-16T01:40:33;59.05;;;21.65;;
62338;SDS011;48368;53.406;6.214;2023-04-16T01:42:59;52.72;;;21.40;;
62338;SDS011;48368;53.406;6.214;2023-04-16T01:45:25;68.18;;;21.70;;
62338;SDS011;48368;53.406;6.214;2023-04-16T01:47:51;57.50;;;19.85;;
62338;SDS011;48368;53.406;6.214;2023-04-16T01:50:17;72.32;;;22.25;;
62338;SDS011;48368;53.406;6.214;2023-04-16T01:52:46;70.03;;;24.42;;
62338;SDS011;48368;53.406;6.214;2023-04-16T01:55:11;59.03;;;22.08;;
62338;SDS011;48368;53.406;6.214;2023-04-16T01:57:37;62.88;;;21.42;;
62338;SDS011;48368;53.406;6.214;2023-04-16T02:00:03;57.03;;;21.48;;
62338;SDS011;48368;53.406;6.214;2023-04-16T02:02:29;57.17;;;21.00;;
62338;SDS011;48368;53.406;6.214;2023-04-16T02:04:55;55.03;;;18.75;;
62338;SDS011;48368;53.406;6.214;2023-04-16T02:07:21;63.95;;;22.83;;
62338;SDS011;48368;53.406;6.214;2023-04-16T02:09:48;55.80;;;18.88;;
62338;SDS011;48368;53.406;6.214;2023-04-16T02:12:16;64.53;;;21.52;;
62338;SDS011;48368;53.406;6.214;2023-04-16T02:14:42;76.70;;;23.42;;
62338;SDS011;48368;53.406;6.214;2023-04-16T02:17:08;50.33;;;18.33;;
62338;SDS011;48368;53.406;6.214;2023-04-16T02:19:34;50.13;;;18.58;;
62338;SDS011;48368;53.406;6.214;2023-04-16T02:22:00;58.83;;;20.25;;
62338;SDS011;48368;53.406;6.214;2023-04-16T02:24:25;55.47;;;19.63;;
62338;SDS011;48368;53.406;6.214;2023-04-16T02:26:52;54.65;;;19.00;;
62338;SDS011;48368;53.406;6.214;2023-04-16T02:29:17;56.45;;;19.10;;
62338;SDS011;48368;53.406;6.214;2023-04-16T02:31:43;55.00;;;19.85;;
62338;SDS011;48368;53.406;6.214;2023-04-16T02:34:10;54.45;;;19.05;;
62338;SDS011;48368;53.406;6.214;2023-04-16T02:36:36;62.75;;;20.60;;
62338;SDS011;48368;53.406;6.214;2023-04-16T02:39:02;61.38;;;19.65;;
62338;SDS011;48368;53.406;6.214;2023-04-16T02:41:28;59.33;;;17.95;;
62338;SDS011;48368;53.406;6.214;2023-04-16T02:43:54;55.33;;;19.42;;
62338;SDS011;48368;53.406;6.214;2023-04-16T02:46:20;50.30;;;18.48;;
62338;SDS011;48368;53.406;6.214;2023-04-16T02:48:46;63.67;;;19.33;;
62338;SDS011;48368;53.406;6.214;2023-04-16T02:51:15;59.00;;;18.73;;
62338;SDS011;48368;53.406;6.214;2023-04-16T02:53:40;46.42;;;18.27;;
62338;SDS011;48368;53.406;6.214;2023-04-16T02:56:10;60.67;;;20.25;;
62338;SDS011;48368;53.406;6.214;2023-04-16T02:58:36;50.72;;;18.35;;
62338;SDS011;48368;53.406;6.214;2023-04-16T03:01:01;63.88;;;19.35;;
62338;SDS011;48368;53.406;6.214;2023-04-16T03:03:27;65.40;;;18.63;;
62338;SDS011;48368;53.406;6.214;2023-04-16T03:05:59;66.18;;;19.90;;
62338;SDS011;48368;53.406;6.214;2023-04-16T03:08:25;49.88;;;19.83;;
62338;SDS011;48368;53.406;6.214;2023-04-16T03:10:51;59.55;;;19.23;;
62338;SDS011;48368;53.406;6.214;2023-04-16T03:13:17;46.70;;;16.42;;
62338;SDS011;48368;53.406;6.214;2023-04-16T03:15:46;63.10;;;18.08;;
62338;SDS011;48368;53.406;6.214;2023-04-16T03:18:13;49.85;;;18.67;;
62338;SDS011;48368;53.406;6.214;2023-04-16T03:20:39;54.63;;;19.58;;
62338;SDS011;48368;53.406;6.214;2023-04-16T03:23:05;54.10;;;17.80;;
62338;SDS011;48368;53.406;6.214;2023-04-16T03:25:30;56.45;;;18.90;;
62338;SDS011;48368;53.406;6.214;2023-04-16T03:27:56;51.45;;;18.08;;
62338;SDS011;48368;53.406;6.214;2023-04-16T03:30:21;58.55;;;19.33;;
62338;SDS011;48368;53.406;6.214;2023-04-16T03:32:47;49.50;;;15.90;;
62338;SDS011;48368;53.406;6.214;2023-04-16T03:35:13;58.60;;;17.02;;
62338;SDS011;48368;53.406;6.214;2023-04-16T03:37:38;61.40;;;19.00;;
62338;SDS011;48368;53.406;6.214;2023-04-16T03:40:04;60.90;;;17.38;;
62338;SDS011;48368;53.406;6.214;2023-04-16T03:42:31;62.72;;;18.25;;
62338;SDS011;48368;53.406;6.214;2023-04-16T03:44:56;50.10;;;16.33;;
62338;SDS011;48368;53.406;6.214;2023-04-16T03:47:23;50.40;;;15.65;;
62338;SDS011;48368;53.406;6.214;2023-04-16T03:49:48;51.05;;;15.88;;
62338;SDS011;48368;53.406;6.214;2023-04-16T03:52:15;50.63;;;16.88;;
62338;SDS011;48368;53.406;6.214;2023-04-16T03:54:41;55.53;;;18.52;;
62338;SDS011;48368;53.406;6.214;2023-04-16T03:57:06;58.72;;;18.60;;
62338;SDS011;48368;53.406;6.214;2023-04-16T03:59:32;52.08;;;18.05;;
62338;SDS011;48368;53.406;6.214;2023-04-16T04:01:58;59.28;;;17.45;;
62338;SDS011;48368;53.406;6.214;2023-04-16T04:04:23;46.30;;;16.75;;
62338;SDS011;48368;53.406;6.214;2023-04-16T04:06:49;59.50;;;18.35;;
62338;SDS011;48368;53.406;6.214;2023-04-16T04:09:14;47.95;;;17.42;;
62338;SDS011;48368;53.406;6.214;2023-04-16T04:11:41;61.92;;;18.92;;
62338;SDS011;48368;53.406;6.214;2023-04-16T04:14:07;55.55;;;17.20;;
62338;SDS011;48368;53.406;6.214;2023-04-16T04:16:33;51.85;;;18.00;;
62338;SDS011;48368;53.406;6.214;2023-04-16T04:18:59;57.63;;;19.63;;
62338;SDS011;48368;53.406;6.214;2023-04-16T04:21:28;62.80;;;19.48;;
62338;SDS011;48368;53.406;6.214;2023-04-16T04:23:55;57.65;;;17.55;;
62338;SDS011;48368;53.406;6.214;2023-04-16T04:26:21;54.10;;;17.88;;
62338;SDS011;48368;53.406;6.214;2023-04-16T04:28:46;65.35;;;17.67;;
62338;SDS011;48368;53.406;6.214;2023-04-16T04:31:12;50.40;;;17.17;;
62338;SDS011;48368;53.406;6.214;2023-04-16T04:33:38;52.70;;;18.13;;
62338;SDS011;48368;53.406;6.214;2023-04-16T04:36:04;49.10;;;16.05;;
62338;SDS011;48368;53.406;6.214;2023-04-16T04:38:30;48.20;;;16.30;;
62338;SDS011;48368;53.406;6.214;2023-04-16T04:40:56;64.30;;;18.67;;
62338;SDS011;48368;53.406;6.214;2023-04-16T04:43:21;55.42;;;16.55;;
62338;SDS011;48368;53.406;6.214;2023-04-16T04:45:47;48.28;;;18.55;;
62338;SDS011;48368;53.406;6.214;2023-04-16T04:48:13;56.38;;;18.65;;
62338;SDS011;48368;53.406;6.214;2023-04-16T04:50:40;59.75;;;19.13;;
62338;SDS011;48368;53.406;6.214;2023-04-16T04:53:06;61.95;;;19.63;;
62338;SDS011;48368;53.406;6.214;2023-04-16T04:55:35;66.47;;;18.27;;
62338;SDS011;48368;53.406;6.214;2023-04-16T04:58:01;59.72;;;18.38;;
62338;SDS011;48368;53.406;6.214;2023-04-16T05:00:28;62.45;;;19.52;;
62338;SDS011;48368;53.406;6.214;2023-04-16T05:02:55;73.07;;;20.00;;
62338;SDS011;48368;53.406;6.214;2023-04-16T05:05:20;55.97;;;17.70;;
62338;SDS011;48368;53.406;6.214;2023-04-16T05:07:46;60.60;;;20.10;;
62338;SDS011;48368;53.406;6.214;2023-04-16T05:10:12;67.68;;;21.13;;
62338;SDS011;48368;53.406;6.214;2023-04-16T05:12:38;57.10;;;20.65;;
62338;SDS011;48368;53.406;6.214;2023-04-16T05:15:04;53.85;;;18.70;;
62338;SDS011;48368;53.406;6.214;2023-04-16T05:17:30;54.58;;;18.50;;
62338;SDS011;48368;53.406;6.214;2023-04-16T05:19:55;47.42;;;16.73;;
62338;SDS011;48368;53.406;6.214;2023-04-16T05:22:21;47.65;;;17.88;;
62338;SDS011;48368;53.406;6.214;2023-04-16T05:24:46;53.72;;;18.77;;
62338;SDS011;48368;53.406;6.214;2023-04-16T05:27:12;59.55;;;20.27;;
62338;SDS011;48368;53.406;6.214;2023-04-16T05:29:38;50.60;;;20.20;;
62338;SDS011;48368;53.406;6.214;2023-04-16T05:32:03;48.22;;;19.02;;
62338;SDS011;48368;53.406;6.214;2023-04-16T05:34:29;51.13;;;19.02;;
62338;SDS011;48368;53.406;6.214;2023-04-16T05:36:55;41.13;;;18.25;;
62338;SDS011;48368;53.406;6.214;2023-04-16T05:39:21;52.13;;;16.63;;
62338;SDS011;48368;53.406;6.214;2023-04-16T05:41:46;53.72;;;16.65;;
62338;SDS011;48368;53.406;6.214;2023-04-16T05:44:12;49.58;;;18.05;;
62338;SDS011;48368;53.406;6.214;2023-04-16T05:46:39;48.15;;;17.55;;
62338;SDS011;48368;53.406;6.214;2023-04-16T05:49:05;54.92;;;17.05;;
62338;SDS011;48368;53.406;6.214;2023-04-16T05:51:31;36.72;;;15.70;;
62338;SDS011;48368;53.406;6.214;2023-04-16T05:53:57;46.88;;;15.65;;
62338;SDS011;48368;53.406;6.214;2023-04-16T05:56:23;47.00;;;17.00;;
62338;SDS011;48368;53.406;6.214;2023-04-16T05:58:49;53.10;;;16.60;;
62338;SDS011;48368;53.406;6.214;2023-04-16T06:01:15;63.80;;;19.10;;
62338;SDS011;48368;53.406;6.214;2023-04-16T06:03:40;57.55;;;18.73;;
62338;SDS011;48368;53.406;6.214;2023-04-16T06:06:06;51.30;;;15.45;;
62338;SDS011;48368;53.406;6.214;2023-04-16T06:08:32;52.17;;;16.50;;
62338;SDS011;48368;53.406;6.214;2023-04-16T06:10:58;48.22;;;15.35;;
62338;SDS011;48368;53.406;6.214;2023-04-16T06:13:24;50.92;;;16.58;;
62338;SDS011;48368;53.406;6.214;2023-04-16T06:15:49;69.22;;;18.33;;
62338;SDS011;48368;53.406;6.214;2023-04-16T06:18:17;49.28;;;14.90;;
62338;SDS011;48368;53.406;6.214;2023-04-16T06:20:43;45.70;;;15.30;;
62338;SDS011;48368;53.406;6.214;2023-04-16T06:23:09;46.25;;;17.15;;
62338;SDS011;48368;53.406;6.214;2023-04-16T06:25:34;47.45;;;17.55;;
62338;SDS011;48368;53.406;6.214;2023-04-16T06:28:00;48.25;;;16.35;;
62338;SDS011;48368;53.406;6.214;2023-04-16T06:30:26;48.38;;;16.88;;
62338;SDS011;48368;53.406;6.214;2023-04-16T06:32:51;62.63;;;17.50;;
62338;SDS011;48368;53.406;6.214;2023-04-16T06:35:17;47.58;;;16.73;;
62338;SDS011;48368;53.406;6.214;2023-04-16T06:37:44;49.15;;;18.10;;
62338;SDS011;48368;53.406;6.214;2023-04-16T06:40:10;52.90;;;17.92;;
62338;SDS011;48368;53.406;6.214;2023-04-16T06:42:36;54.35;;;18.52;;
62338;SDS011;48368;53.406;6.214;2023-04-16T06:45:02;49.42;;;16.92;;
62338;SDS011;48368;53.406;6.214;2023-04-16T06:47:27;57.25;;;16.73;;
62338;SDS011;48368;53.406;6.214;2023-04-16T06:49:53;46.83;;;15.07;;
62338;SDS011;48368;53.406;6.214;2023-04-16T06:52:19;40.53;;;15.15;;
62338;SDS011;48368;53.406;6.214;2023-04-16T06:54:44;47.22;;;17.50;;
62338;SDS011;48368;53.406;6.214;2023-04-16T06:57:10;44.50;;;16.65;;
62338;SDS011;48368;53.406;6.214;2023-04-16T06:59:36;43.80;;;16.00;;
62338;SDS011;48368;53.406;6.214;2023-04-16T07:02:01;43.40;;;16.27;;
62338;SDS011;48368;53.406;6.214;2023-04-16T07:04:27;45.95;;;16.45;;
62338;SDS011;48368;53.406;6.214;2023-04-16T07:06:53;42.65;;;15.85;;
62338;SDS011;48368;53.406;6.214;2023-04-16T07:09:18;43.53;;;15.73;;
62338;SDS011;48368;53.406;6.214;2023-04-16T07:11:44;43.33;;;15.75;;
62338;SDS011;48368;53.406;6.214;2023-04-16T07:14:09;44.88;;;15.98;;
62338;SDS011;48368;53.406;6.214;2023-04-16T07:16:35;50.65;;;15.95;;
62338;SDS011;48368;53.406;6.214;2023-04-16T07:19:01;50.50;;;16.25;;
62338;SDS011;48368;53.406;6.214;2023-04-16T07:21:27;58.13;;;18.83;;
62338;SDS011;48368;53.406;6.214;2023-04-16T07:23:53;53.28;;;18.38;;
62338;SDS011;48368;53.406;6.214;2023-04-16T07:26:19;54.53;;;17.08;;
62338;SDS011;48368;53.406;6.214;2023-04-16T07:28:45;47.75;;;16.13;;
62338;SDS011;48368;53.406;6.214;2023-04-16T07:31:10;46.97;;;17.20;;
62338;SDS011;48368;53.406;6.214;2023-04-16T07:33:36;52.50;;;17.05;;
62338;SDS011;48368;53.406;6.214;2023-04-16T07:36:02;46.58;;;17.13;;
62338;SDS011;48368;53.406;6.214;2023-04-16T07:38:28;51.42;;;16.00;;
62338;SDS011;48368;53.406;6.214;2023-04-16T07:40:54;44.03;;;17.20;;
62338;SDS011;48368;53.406;6.214;2023-04-16T07:43:20;50.67;;;18.90;;
62338;SDS011;48368;53.406;6.214;2023-04-16T07:45:46;41.20;;;16.58;;
62338;SDS011;48368;53.406;6.214;2023-04-16T07:48:12;62.08;;;17.58;;
62338;SDS011;48368;53.406;6.214;2023-04-16T07:50:38;59.42;;;17.55;;
62338;SDS011;48368;53.406;6.214;2023-04-16T07:53:04;51.78;;;17.48;;
62338;SDS011;48368;53.406;6.214;2023-04-16T07:55:31;58.47;;;16.65;;
62338;SDS011;48368;53.406;6.214;2023-04-16T07:57:57;48.80;;;16.27;;
62338;SDS011;48368;53.406;6.214;2023-04-16T08:00:22;54.75;;;16.95;;
62338;SDS011;48368;53.406;6.214;2023-04-16T08:02:48;64.18;;;19.08;;
62338;SDS011;48368;53.406;6.214;2023-04-16T08:05:14;47.90;;;15.90;;
62338;SDS011;48368;53.406;6.214;2023-04-16T08:07:39;43.33;;;16.27;;
62338;SDS011;48368;53.406;6.214;2023-04-16T08:10:05;42.58;;;15.52;;
62338;SDS011;48368;53.406;6.214;2023-04-16T08:12:31;49.00;;;17.92;;
62338;SDS011;48368;53.406;6.214;2023-04-16T08:14:57;42.65;;;16.35;;
62338;SDS011;48368;53.406;6.214;2023-04-16T08:17:22;53.40;;;17.85;;
62338;SDS011;48368;53.406;6.214;2023-04-16T08:19:48;49.92;;;18.30;;
62338;SDS011;48368;53.406;6.214;2023-04-16T08:22:14;38.45;;;15.38;;
62338;SDS011;48368;53.406;6.214;2023-04-16T08:24:40;48.35;;;16.58;;
62338;SDS011;48368;53.406;6.214;2023-04-16T08:27:05;38.78;;;16.75;;
62338;SDS011;48368;53.406;6.214;2023-04-16T08:29:31;38.55;;;14.88;;
62338;SDS011;48368;53.406;6.214;2023-04-16T08:31:57;37.42;;;16.75;;
62338;SDS011;48368;53.406;6.214;2023-04-16T08:34:23;50.53;;;16.60;;
62338;SDS011;48368;53.406;6.214;2023-04-16T08:36:49;48.15;;;17.13;;
62338;SDS011;48368;53.406;6.214;2023-04-16T08:39:15;44.60;;;16.30;;
62338;SDS011;48368;53.406;6.214;2023-04-16T08:41:42;38.25;;;14.82;;
62338;SDS011;48368;53.406;6.214;2023-04-16T08:44:19;41.42;;;14.45;;
62338;SDS011;48368;53.406;6.214;2023-04-16T08:46:48;34.92;;;14.75;;
62338;SDS011;48368;53.406;6.214;2023-04-16T08:49:18;48.30;;;16.95;;
62338;SDS011;48368;53.406;6.214;2023-04-16T08:51:54;47.40;;;16.55;;
62338;SDS011;48368;53.406;6.214;2023-04-16T08:59:31;44.25;;;17.17;;
62338;SDS011;48368;53.406;6.214;2023-04-16T09:01:58;44.72;;;16.23;;
62338;SDS011;48368;53.406;6.214;2023-04-16T09:04:26;44.92;;;17.73;;
62338;SDS011;48368;53.406;6.214;2023-04-16T09:06:52;49.40;;;16.80;;
62338;SDS011;48368;53.406;6.214;2023-04-16T09:09:21;44.97;;;17.23;;
62338;SDS011;48368;53.406;6.214;2023-04-16T09:11:53;50.83;;;16.30;;
62338;SDS011;48368;53.406;6.214;2023-04-16T09:14:20;52.30;;;19.13;;
62338;SDS011;48368;53.406;6.214;2023-04-16T09:16:46;49.70;;;18.13;;
62338;SDS011;48368;53.406;6.214;2023-04-16T09:19:13;50.28;;;17.63;;
62338;SDS011;48368;53.406;6.214;2023-04-16T09:21:39;44.25;;;18.25;;
62338;SDS011;48368;53.406;6.214;2023-04-16T09:24:07;51.60;;;18.13;;
62338;SDS011;48368;53.406;6.214;2023-04-16T09:26:33;49.67;;;16.48;;
62338;SDS011;48368;53.406;6.214;2023-04-16T09:29:00;48.58;;;18.55;;
62338;SDS011;48368;53.406;6.214;2023-04-16T09:31:26;53.08;;;18.02;;
62338;SDS011;48368;53.406;6.214;2023-04-16T09:36:30;41.78;;;17.77;;
62338;SDS011;48368;53.406;6.214;2023-04-16T09:38:57;44.78;;;16.60;;
62338;SDS011;48368;53.406;6.214;2023-04-16T09:41:23;34.67;;;16.13;;
62338;SDS011;48368;53.406;6.214;2023-04-16T09:43:54;38.97;;;16.92;;
62338;SDS011;48368;53.406;6.214;2023-04-16T09:46:21;36.70;;;17.05;;
62338;SDS011;48368;53.406;6.214;2023-04-16T09:48:48;37.20;;;17.08;;
62338;SDS011;48368;53.406;6.214;2023-04-16T09:51:16;37.22;;;15.32;;
62338;SDS011;48368;53.406;6.214;2023-04-16T09:53:41;39.25;;;18.40;;
62338;SDS011;48368;53.406;6.214;2023-04-16T09:56:07;52.95;;;18.30;;
62338;SDS011;48368;53.406;6.214;2023-04-16T09:58:36;44.33;;;17.80;;
62338;SDS011;48368;53.406;6.214;2023-04-16T10:01:06;43.95;;;18.13;;
62338;SDS011;48368;53.406;6.214;2023-04-16T10:03:33;48.15;;;19.02;;
62338;SDS011;48368;53.406;6.214;2023-04-16T10:06:13;40.78;;;16.98;;
62338;SDS011;48368;53.406;6.214;2023-04-16T10:08:45;40.60;;;17.33;;
62338;SDS011;48368;53.406;6.214;2023-04-16T10:11:15;41.05;;;18.85;;
62338;SDS011;48368;53.406;6.214;2023-04-16T10:13:42;46.05;;;17.27;;
62338;SDS011;48368;53.406;6.214;2023-04-16T10:16:08;40.42;;;18.80;;
62338;SDS011;48368;53.406;6.214;2023-04-16T10:18:35;41.83;;;17.73;;
62338;SDS011;48368;53.406;6.214;2023-04-16T10:21:04;44.83;;;18.98;;
62338;SDS011;48368;53.406;6.214;2023-04-16T10:23:31;45.92;;;18.92;;
62338;SDS011;48368;53.406;6.214;2023-04-16T10:25:57;41.47;;;18.00;;
62338;SDS011;48368;53.406;6.214;2023-04-16T10:28:24;42.33;;;17.83;;
62338;SDS011;48368;53.406;6.214;2023-04-16T10:30:53;48.10;;;18.27;;
62338;SDS011;48368;53.406;6.214;2023-04-16T10:33:21;44.65;;;17.75;;
62338;SDS011;48368;53.406;6.214;2023-04-16T10:35:51;47.30;;;18.58;;
62338;SDS011;48368;53.406;6.214;2023-04-16T10:38:23;45.85;;;17.17;;
62338;SDS011;48368;53.406;6.214;2023-04-16T10:40:57;39.28;;;15.77;;
62338;SDS011;48368;53.406;6.214;2023-04-16T10:43:27;34.88;;;14.45;;
62338;SDS011;48368;53.406;6.214;2023-04-16T10:45:54;32.20;;;14.40;;
62338;SDS011;48368;53.406;6.214;2023-04-16T10:48:19;40.35;;;15.68;;
62338;SDS011;48368;53.406;6.214;2023-04-16T10:50:54;38.17;;;16.25;;
62338;SDS011;48368;53.406;6.214;2023-04-16T10:53:24;39.97;;;15.65;;
62338;SDS011;48368;53.406;6.214;2023-04-16T10:58:34;38.90;;;16.95;;
62338;SDS011;48368;53.406;6.214;2023-04-16T11:01:05;45.42;;;16.92;;
62338;SDS011;48368;53.406;6.214;2023-04-16T11:03:46;37.60;;;15.93;;
62338;SDS011;48368;53.406;6.214;2023-04-16T11:06:13;38.78;;;17.17;;
62338;SDS011;48368;53.406;6.214;2023-04-16T11:08:42;45.60;;;18.05;;
62338;SDS011;48368;53.406;6.214;2023-04-16T11:11:10;42.00;;;17.77;;
62338;SDS011;48368;53.406;6.214;2023-04-16T11:13:36;42.22;;;17.63;;
62338;SDS011;48368;53.406;6.214;2023-04-16T11:16:03;40.78;;;17.05;;
62338;SDS011;48368;53.406;6.214;2023-04-16T11:18:29;34.92;;;15.73;;
62338;SDS011;48368;53.406;6.214;2023-04-16T11:20:55;38.13;;;15.88;;
62338;SDS011;48368;53.406;6.214;2023-04-16T11:23:22;29.08;;;15.52;;
62338;SDS011;48368;53.406;6.214;2023-04-16T11:25:47;38.90;;;15.90;;
62338;SDS011;48368;53.406;6.214;2023-04-16T11:28:15;39.42;;;15.50;;
62338;SDS011;48368;53.406;6.214;2023-04-16T11:30:41;35.03;;;15.55;;
62338;SDS011;48368;53.406;6.214;2023-04-16T11:33:07;39.22;;;16.73;;
62338;SDS011;48368;53.406;6.214;2023-04-16T11:35:35;35.55;;;17.15;;
62338;SDS011;48368;53.406;6.214;2023-04-16T11:38:03;39.92;;;15.40;;
62338;SDS011;48368;53.406;6.214;2023-04-16T11:40:32;37.25;;;16.80;;
62338;SDS011;48368;53.406;6.214;2023-04-16T11:43:03;43.00;;;15.45;;
62338;SDS011;48368;53.406;6.214;2023-04-16T11:45:37;39.60;;;15.77;;
62338;SDS011;48368;53.406;6.214;2023-04-16T11:48:03;37.67;;;16.65;;
62338;SDS011;48368;53.406;6.214;2023-04-16T11:50:29;40.83;;;15.30;;
62338;SDS011;48368;53.406;6.214;2023-04-16T11:52:55;30.20;;;14.05;;
62338;SDS011;48368;53.406;6.214;2023-04-16T11:55:27;32.00;;;13.40;;
62338;SDS011;48368;53.406;6.214;2023-04-16T11:57:54;31.00;;;15.13;;
62338;SDS011;48368;53.406;6.214;2023-04-16T12:00:20;32.97;;;16.45;;
62338;SDS011;48368;53.406;6.214;2023-04-16T12:02:49;31.58;;;15.55;;
62338;SDS011;48368;53.406;6.214;2023-04-16T12:08:03;34.67;;;13.97;;
62338;SDS011;48368;53.406;6.214;2023-04-16T12:10:31;36.88;;;14.77;;
62338;SDS011;48368;53.406;6.214;2023-04-16T12:13:11;30.00;;;13.60;;
62338;SDS011;48368;53.406;6.214;2023-04-16T12:15:48;30.05;;;14.90;;
62338;SDS011;48368;53.406;6.214;2023-04-16T12:18:18;26.45;;;13.63;;
62338;SDS011;48368;53.406;6.214;2023-04-16T12:20:47;32.73;;;14.80;;
62338;SDS011;48368;53.406;6.214;2023-04-16T12:23:23;36.63;;;16.25;;
62338;SDS011;48368;53.406;6.214;2023-04-16T12:25:48;40.63;;;15.55;;
62338;SDS011;48368;53.406;6.214;2023-04-16T12:28:32;36.83;;;16.25;;
62338;SDS011;48368;53.406;6.214;2023-04-16T12:30:59;32.63;;;14.73;;
62338;SDS011;48368;53.406;6.214;2023-04-16T12:33:25;36.20;;;16.23;;
62338;SDS011;48368;53.406;6.214;2023-04-16T12:35:51;27.15;;;14.90;;
62338;SDS011;48368;53.406;6.214;2023-04-16T12:38:17;41.28;;;17.85;;
62338;SDS011;48368;53.406;6.214;2023-04-16T12:40:43;43.80;;;16.05;;
62338;SDS011;48368;53.406;6.214;2023-04-16T12:43:09;36.78;;;17.13;;
62338;SDS011;48368;53.406;6.214;2023-04-16T12:45:35;33.83;;;15.45;;
62338;SDS011;48368;53.406;6.214;2023-04-16T12:48:02;32.50;;;15.50;;
62338;SDS011;48368;53.406;6.214;2023-04-16T12:50:28;36.55;;;15.68;;
62338;SDS011;48368;53.406;6.214;2023-04-16T12:52:54;39.47;;;17.80;;
62338;SDS011;48368;53.406;6.214;2023-04-16T12:55:20;38.60;;;18.35;;
62338;SDS011;48368;53.406;6.214;2023-04-16T12:57:47;34.40;;;17.00;;
62338;SDS011;48368;53.406;6.214;2023-04-16T13:00:13;33.40;;;16.00;;
62338;SDS011;48368;53.406;6.214;2023-04-16T13:02:40;30.60;;;16.50;;
62338;SDS011;48368;53.406;6.214;2023-04-16T13:05:06;33.40;;;17.27;;
62338;SDS011;48368;53.406;6.214;2023-04-16T13:07:32;32.10;;;16.38;;
62338;SDS011;48368;53.406;6.214;2023-04-16T13:09:58;32.67;;;17.50;;
62338;SDS011;48368;53.406;6.214;2023-04-16T13:12:24;38.05;;;18.75;;
62338;SDS011;48368;53.406;6.214;2023-04-16T13:14:51;35.33;;;17.33;;
62338;SDS011;48368;53.406;6.214;2023-04-16T13:17:16;31.02;;;16.85;;
62338;SDS011;48368;53.406;6.214;2023-04-16T13:19:42;28.05;;;17.15;;
62338;SDS011;48368;53.406;6.214;2023-04-16T13:22:08;29.25;;;16.38;;
62338;SDS011;48368;53.406;6.214;2023-04-16T13:24:33;28.67;;;16.83;;
62338;SDS011;48368;53.406;6.214;2023-04-16T13:26:59;32.58;;;17.15;;
62338;SDS011;48368;53.406;6.214;2023-04-16T13:29:25;30.02;;;16.92;;
62338;SDS011;48368;53.406;6.214;2023-04-16T13:31:51;34.83;;;18.30;;
62338;SDS011;48368;53.406;6.214;2023-04-16T13:34:17;35.20;;;19.23;;
62338;SDS011;48368;53.406;6.214;2023-04-16T13:36:42;34.42;;;18.98;;
62338;SDS011;48368;53.406;6.214;2023-04-16T13:39:08;34.50;;;17.50;;
62338;SDS011;48368;53.406;6.214;2023-04-16T13:41:37;32.40;;;17.58;;
62338;SDS011;48368;53.406;6.214;2023-04-16T13:44:02;39.33;;;18.42;;
62338;SDS011;48368;53.406;6.214;2023-04-16T13:46:28;35.70;;;18.48;;
62338;SDS011;48368;53.406;6.214;2023-04-16T13:48:54;37.38;;;18.52;;
62338;SDS011;48368;53.406;6.214;2023-04-16T13:51:20;31.52;;;17.42;;
62338;SDS011;48368;53.406;6.214;2023-04-16T13:53:48;34.55;;;16.67;;
62338;SDS011;48368;53.406;6.214;2023-04-16T13:56:14;33.17;;;17.85;;
62338;SDS011;48368;53.406;6.214;2023-04-16T13:58:40;37.28;;;17.83;;
62338;SDS011;48368;53.406;6.214;2023-04-16T14:01:06;40.78;;;18.25;;
62338;SDS011;48368;53.406;6.214;2023-04-16T14:03:32;37.00;;;17.80;;
62338;SDS011;48368;53.406;6.214;2023-04-16T14:06:03;35.75;;;19.27;;
62338;SDS011;48368;53.406;6.214;2023-04-16T14:08:29;37.97;;;17.73;;
62338;SDS011;48368;53.406;6.214;2023-04-16T14:10:55;36.30;;;18.90;;
62338;SDS011;48368;53.406;6.214;2023-04-16T14:13:22;35.15;;;17.42;;
62338;SDS011;48368;53.406;6.214;2023-04-16T14:15:48;42.75;;;19.13;;
62338;SDS011;48368;53.406;6.214;2023-04-16T14:18:14;38.75;;;18.15;;
62338;SDS011;48368;53.406;6.214;2023-04-16T14:20:40;36.50;;;18.23;;
62338;SDS011;48368;53.406;6.214;2023-04-16T14:23:06;39.17;;;18.95;;
62338;SDS011;48368;53.406;6.214;2023-04-16T14:25:31;31.98;;;16.45;;
62338;SDS011;48368;53.406;6.214;2023-04-16T14:27:58;34.20;;;17.42;;
62338;SDS011;48368;53.406;6.214;2023-04-16T14:30:25;40.45;;;20.95;;